sensor_id;sensor_type;location;lat;lon;timestamp;P1;durP1;ratioP1;P2;durP2;ratioP2
6737;SDS011;3406;49.902;8.596;2024-03-06T00:02:04;0.40;;;0.40;;
6737;SDS011;3406;49.902;8.596;2024-03-06T00:04:31;0.33;;;0.33;;
6737;SDS011;3406;49.902;8.596;2024-03-06T00:06:58;0.27;;;0.27;;
6737;SDS011;3406;49.902;8.596;2024-03-06T00:09:25;0.47;;;0.47;;
6737;SDS011;3406;49.902;8.596;2024-03-06T00:11:52;0.30;;;0.30;;
6737;SDS011;3406;49.902;8.596;2024-03-06T00:14:20;0.30;;;0.30;;
6737;SDS011;3406;49.902;8.596;2024-03-06T00:16:47;0.20;;;0.20;;
6737;SDS011;3406;49.902;8.596;2024-03-06T00:19:15;0.40;;;0.40;;
6737;SDS011;3406;49.902;8.596;2024-03-06T00:21:41;0.40;;;0.40;;
6737;SDS011;3406;49.902;8.596;2024-03-06T00:24:08;0.40;;;0.40;;
6737;SDS011;3406;49.902;8.596;2024-03-06T00:26:39;0.30;;;0.30;;
6737;SDS011;3406;49.902;8.596;2024-03-06T00:29:05;0.53;;;0.53;;
6737;SDS011;3406;49.902;8.596;2024-03-06T00:31:33;0.73;;;0.73;;
6737;SDS011;3406;49.902;8.596;2024-03-06T00:34:00;0.53;;;0.50;;
6737;SDS011;3406;49.902;8.596;2024-03-06T00:36:27;0.30;;;0.30;;
6737;SDS011;3406;49.902;8.596;2024-03-06T00:38:54;0.30;;;0.30;;
6737;SDS011;3406;49.902;8.596;2024-03-06T00:41:20;0.20;;;0.20;;
6737;SDS011;3406;49.902;8.596;2024-03-06T00:43:46;0.20;;;0.20;;
6737;SDS011;3406;49.902;8.596;2024-03-06T00:46:12;0.20;;;0.20;;
6737;SDS011;3406;49.902;8.596;2024-03-06T00:48:40;0.40;;;0.40;;
6737;SDS011;3406;49.902;8.596;2024-03-06T00:51:07;0.20;;;0.20;;
6737;SDS011;3406;49.902;8.596;2024-03-06T00:53:34;0.20;;;0.20;;
6737;SDS011;3406;49.902;8.596;2024-03-06T00:56:01;0.30;;;0.30;;
6737;SDS011;3406;49.902;8.596;2024-03-06T00:58:28;0.20;;;0.20;;
6737;SDS011;3406;49.902;8.596;2024-03-06T01:00:55;0.37;;;0.37;;
6737;SDS011;3406;49.902;8.596;2024-03-06T01:03:23;0.20;;;0.20;;
6737;SDS011;3406;49.902;8.596;2024-03-06T01:05:51;0.20;;;0.20;;
6737;SDS011;3406;49.902;8.596;2024-03-06T01:08:18;0.20;;;0.20;;
6737;SDS011;3406;49.902;8.596;2024-03-06T01:10:44;0.20;;;0.20;;
6737;SDS011;3406;49.902;8.596;2024-03-06T01:13:11;0.53;;;0.53;;
6737;SDS011;3406;49.902;8.596;2024-03-06T01:15:38;0.20;;;0.20;;
6737;SDS011;3406;49.902;8.596;2024-03-06T01:18:05;0.20;;;0.20;;
6737;SDS011;3406;49.902;8.596;2024-03-06T01:20:31;0.40;;;0.40;;
6737;SDS011;3406;49.902;8.596;2024-03-06T01:22:59;0.20;;;0.20;;
6737;SDS011;3406;49.902;8.596;2024-03-06T01:25:26;0.20;;;0.20;;
6737;SDS011;3406;49.902;8.596;2024-03-06T01:27:53;0.40;;;0.40;;
6737;SDS011;3406;49.902;8.596;2024-03-06T01:30:19;0.27;;;0.27;;
6737;SDS011;3406;49.902;8.596;2024-03-06T01:32:46;0.20;;;0.20;;
6737;SDS011;3406;49.902;8.596;2024-03-06T01:35:13;0.70;;;0.70;;
6737;SDS011;3406;49.902;8.596;2024-03-06T01:37:40;0.30;;;0.30;;
6737;SDS011;3406;49.902;8.596;2024-03-06T01:40:08;0.20;;;0.20;;
6737;SDS011;3406;49.902;8.596;2024-03-06T01:42:37;0.30;;;0.30;;
6737;SDS011;3406;49.902;8.596;2024-03-06T01:45:04;0.30;;;0.30;;
6737;SDS011;3406;49.902;8.596;2024-03-06T01:47:32;0.20;;;0.20;;
6737;SDS011;3406;49.902;8.596;2024-03-06T01:49:59;0.30;;;0.30;;
6737;SDS011;3406;49.902;8.596;2024-03-06T01:52:26;0.20;;;0.20;;
6737;SDS011;3406;49.902;8.596;2024-03-06T01:54:53;0.30;;;0.30;;
6737;SDS011;3406;49.902;8.596;2024-03-06T01:57:22;0.30;;;0.30;;
6737;SDS011;3406;49.902;8.596;2024-03-06T01:59:49;0.30;;;0.30;;
6737;SDS011;3406;49.902;8.596;2024-03-06T02:02:16;0.53;;;0.53;;
6737;SDS011;3406;49.902;8.596;2024-03-06T02:04:43;0.30;;;0.30;;
6737;SDS011;3406;49.902;8.596;2024-03-06T02:07:10;0.30;;;0.30;;
6737;SDS011;3406;49.902;8.596;2024-03-06T02:09:36;0.27;;;0.27;;
6737;SDS011;3406;49.902;8.596;2024-03-06T02:12:03;0.33;;;0.33;;
6737;SDS011;3406;49.902;8.596;2024-03-06T02:14:34;0.57;;;0.57;;
6737;SDS011;3406;49.902;8.596;2024-03-06T02:17:01;0.20;;;0.20;;
6737;SDS011;3406;49.902;8.596;2024-03-06T02:19:37;0.33;;;0.33;;
6737;SDS011;3406;49.902;8.596;2024-03-06T02:22:05;0.27;;;0.27;;
6737;SDS011;3406;49.902;8.596;2024-03-06T02:24:32;0.30;;;0.30;;
6737;SDS011;3406;49.902;8.596;2024-03-06T02:26:59;0.57;;;0.57;;
6737;SDS011;3406;49.902;8.596;2024-03-06T02:29:25;0.30;;;0.30;;
6737;SDS011;3406;49.902;8.596;2024-03-06T02:31:52;0.50;;;0.50;;
6737;SDS011;3406;49.902;8.596;2024-03-06T02:34:19;0.30;;;0.30;;
6737;SDS011;3406;49.902;8.596;2024-03-06T02:40:09;0.30;;;0.30;;
6737;SDS011;3406;49.902;8.596;2024-03-06T02:42:36;0.50;;;0.50;;
6737;SDS011;3406;49.902;8.596;2024-03-06T02:45:04;0.40;;;0.40;;
6737;SDS011;3406;49.902;8.596;2024-03-06T02:47:32;0.30;;;0.30;;
6737;SDS011;3406;49.902;8.596;2024-03-06T02:49:59;0.70;;;0.70;;
6737;SDS011;3406;49.902;8.596;2024-03-06T02:52:25;0.40;;;0.40;;
6737;SDS011;3406;49.902;8.596;2024-03-06T02:54:52;0.40;;;0.40;;
6737;SDS011;3406;49.902;8.596;2024-03-06T02:57:20;0.20;;;0.20;;
6737;SDS011;3406;49.902;8.596;2024-03-06T02:59:47;0.20;;;0.20;;
6737;SDS011;3406;49.902;8.596;2024-03-06T03:02:13;0.20;;;0.20;;
6737;SDS011;3406;49.902;8.596;2024-03-06T03:04:40;0.30;;;0.30;;
6737;SDS011;3406;49.902;8.596;2024-03-06T03:07:07;0.20;;;0.20;;
6737;SDS011;3406;49.902;8.596;2024-03-06T03:09:35;2.93;;;0.37;;
6737;SDS011;3406;49.902;8.596;2024-03-06T03:12:03;0.30;;;0.30;;
6737;SDS011;3406;49.902;8.596;2024-03-06T03:14:31;0.30;;;0.30;;
6737;SDS011;3406;49.902;8.596;2024-03-06T03:16:58;0.30;;;0.30;;
6737;SDS011;3406;49.902;8.596;2024-03-06T03:19:26;0.20;;;0.20;;
6737;SDS011;3406;49.902;8.596;2024-03-06T03:21:53;0.20;;;0.20;;
6737;SDS011;3406;49.902;8.596;2024-03-06T03:24:19;0.40;;;0.40;;
6737;SDS011;3406;49.902;8.596;2024-03-06T03:26:46;0.30;;;0.30;;
6737;SDS011;3406;49.902;8.596;2024-03-06T03:29:13;0.20;;;0.20;;
6737;SDS011;3406;49.902;8.596;2024-03-06T03:31:41;0.30;;;0.30;;
6737;SDS011;3406;49.902;8.596;2024-03-06T03:34:08;0.23;;;0.23;;
6737;SDS011;3406;49.902;8.596;2024-03-06T03:36:39;0.20;;;0.20;;
6737;SDS011;3406;49.902;8.596;2024-03-06T03:39:06;0.30;;;0.30;;
6737;SDS011;3406;49.902;8.596;2024-03-06T03:41:38;0.40;;;0.40;;
6737;SDS011;3406;49.902;8.596;2024-03-06T03:44:08;0.27;;;0.27;;
6737;SDS011;3406;49.902;8.596;2024-03-06T03:46:35;0.30;;;0.30;;
6737;SDS011;3406;49.902;8.596;2024-03-06T03:49:02;0.27;;;0.27;;
6737;SDS011;3406;49.902;8.596;2024-03-06T03:51:29;0.47;;;0.47;;
6737;SDS011;3406;49.902;8.596;2024-03-06T03:53:56;0.40;;;0.40;;
6737;SDS011;3406;49.902;8.596;2024-03-06T03:56:22;0.20;;;0.20;;
6737;SDS011;3406;49.902;8.596;2024-03-06T03:58:49;0.40;;;0.40;;
6737;SDS011;3406;49.902;8.596;2024-03-06T04:01:17;0.30;;;0.30;;
6737;SDS011;3406;49.902;8.596;2024-03-06T04:03:43;0.30;;;0.30;;
6737;SDS011;3406;49.902;8.596;2024-03-06T04:06:11;0.27;;;0.27;;
6737;SDS011;3406;49.902;8.596;2024-03-06T04:08:38;0.30;;;0.30;;
6737;SDS011;3406;49.902;8.596;2024-03-06T04:11:06;0.40;;;0.40;;
6737;SDS011;3406;49.902;8.596;2024-03-06T04:13:36;0.40;;;0.40;;
6737;SDS011;3406;49.902;8.596;2024-03-06T04:16:04;0.30;;;0.30;;
6737;SDS011;3406;49.902;8.596;2024-03-06T04:18:31;0.20;;;0.20;;
6737;SDS011;3406;49.902;8.596;2024-03-06T04:20:59;0.20;;;0.20;;
6737;SDS011;3406;49.902;8.596;2024-03-06T04:23:30;0.40;;;0.40;;
6737;SDS011;3406;49.902;8.596;2024-03-06T04:25:57;0.20;;;0.20;;
6737;SDS011;3406;49.902;8.596;2024-03-06T04:28:24;0.30;;;0.30;;
6737;SDS011;3406;49.902;8.596;2024-03-06T04:30:51;0.33;;;0.33;;
6737;SDS011;3406;49.902;8.596;2024-03-06T04:33:18;0.43;;;0.43;;
6737;SDS011;3406;49.902;8.596;2024-03-06T04:35:45;0.20;;;0.20;;
6737;SDS011;3406;49.902;8.596;2024-03-06T04:38:12;0.30;;;0.30;;
6737;SDS011;3406;49.902;8.596;2024-03-06T04:40:40;0.20;;;0.20;;
6737;SDS011;3406;49.902;8.596;2024-03-06T04:43:07;0.23;;;0.23;;
6737;SDS011;3406;49.902;8.596;2024-03-06T04:45:33;0.20;;;0.20;;
6737;SDS011;3406;49.902;8.596;2024-03-06T04:48:00;0.20;;;0.20;;
6737;SDS011;3406;49.902;8.596;2024-03-06T04:50:27;0.30;;;0.30;;
6737;SDS011;3406;49.902;8.596;2024-03-06T04:52:53;0.50;;;0.50;;
6737;SDS011;3406;49.902;8.596;2024-03-06T04:55:21;0.40;;;0.40;;
6737;SDS011;3406;49.902;8.596;2024-03-06T04:57:49;0.30;;;0.30;;
6737;SDS011;3406;49.902;8.596;2024-03-06T05:00:15;0.37;;;0.37;;
6737;SDS011;3406;49.902;8.596;2024-03-06T05:02:43;0.20;;;0.20;;
6737;SDS011;3406;49.902;8.596;2024-03-06T05:05:10;0.20;;;0.20;;
6737;SDS011;3406;49.902;8.596;2024-03-06T05:07:37;0.30;;;0.30;;
6737;SDS011;3406;49.902;8.596;2024-03-06T05:10:04;0.30;;;0.30;;
6737;SDS011;3406;49.902;8.596;2024-03-06T05:12:33;0.30;;;0.30;;
6737;SDS011;3406;49.902;8.596;2024-03-06T05:15:02;0.50;;;0.50;;
6737;SDS011;3406;49.902;8.596;2024-03-06T05:17:28;0.30;;;0.30;;
6737;SDS011;3406;49.902;8.596;2024-03-06T05:19:55;0.27;;;0.27;;
6737;SDS011;3406;49.902;8.596;2024-03-06T05:22:22;1.03;;;0.27;;
6737;SDS011;3406;49.902;8.596;2024-03-06T05:24:49;0.20;;;0.20;;
6737;SDS011;3406;49.902;8.596;2024-03-06T05:27:15;0.30;;;0.30;;
6737;SDS011;3406;49.902;8.596;2024-03-06T05:29:42;0.40;;;0.40;;
6737;SDS011;3406;49.902;8.596;2024-03-06T05:32:10;0.20;;;0.20;;
6737;SDS011;3406;49.902;8.596;2024-03-06T05:34:37;0.30;;;0.30;;
6737;SDS011;3406;49.902;8.596;2024-03-06T05:37:04;0.30;;;0.30;;
6737;SDS011;3406;49.902;8.596;2024-03-06T05:39:31;0.53;;;0.53;;
6737;SDS011;3406;49.902;8.596;2024-03-06T05:45:21;0.27;;;0.27;;
6737;SDS011;3406;49.902;8.596;2024-03-06T05:47:49;0.20;;;0.20;;
6737;SDS011;3406;49.902;8.596;2024-03-06T05:50:16;0.40;;;0.40;;
6737;SDS011;3406;49.902;8.596;2024-03-06T05:52:43;0.20;;;0.20;;
6737;SDS011;3406;49.902;8.596;2024-03-06T05:55:10;0.30;;;0.30;;
6737;SDS011;3406;49.902;8.596;2024-03-06T05:57:37;0.20;;;0.20;;
6737;SDS011;3406;49.902;8.596;2024-03-06T06:00:04;0.30;;;0.30;;
6737;SDS011;3406;49.902;8.596;2024-03-06T06:02:36;0.20;;;0.20;;
6737;SDS011;3406;49.902;8.596;2024-03-06T06:05:04;0.30;;;0.30;;
6737;SDS011;3406;49.902;8.596;2024-03-06T06:07:32;0.23;;;0.23;;
6737;SDS011;3406;49.902;8.596;2024-03-06T06:09:58;0.40;;;0.40;;
6737;SDS011;3406;49.902;8.596;2024-03-06T06:12:25;0.30;;;0.30;;
6737;SDS011;3406;49.902;8.596;2024-03-06T06:14:52;0.20;;;0.20;;
6737;SDS011;3406;49.902;8.596;2024-03-06T06:17:19;0.33;;;0.33;;
6737;SDS011;3406;49.902;8.596;2024-03-06T06:19:45;0.40;;;0.40;;
6737;SDS011;3406;49.902;8.596;2024-03-06T06:22:13;0.20;;;0.20;;
6737;SDS011;3406;49.902;8.596;2024-03-06T06:24:40;0.30;;;0.30;;
6737;SDS011;3406;49.902;8.596;2024-03-06T06:27:07;0.20;;;0.20;;
6737;SDS011;3406;49.902;8.596;2024-03-06T06:29:33;1.10;;;0.43;;
6737;SDS011;3406;49.902;8.596;2024-03-06T06:32:00;0.30;;;0.30;;
6737;SDS011;3406;49.902;8.596;2024-03-06T06:34:27;0.20;;;0.20;;
6737;SDS011;3406;49.902;8.596;2024-03-06T06:36:53;0.23;;;0.23;;
6737;SDS011;3406;49.902;8.596;2024-03-06T06:39:21;0.40;;;0.40;;
6737;SDS011;3406;49.902;8.596;2024-03-06T06:41:48;0.27;;;0.27;;
6737;SDS011;3406;49.902;8.596;2024-03-06T06:44:14;0.20;;;0.20;;
6737;SDS011;3406;49.902;8.596;2024-03-06T06:46:41;0.30;;;0.30;;
6737;SDS011;3406;49.902;8.596;2024-03-06T06:49:08;0.27;;;0.27;;
6737;SDS011;3406;49.902;8.596;2024-03-06T06:51:35;0.43;;;0.43;;
6737;SDS011;3406;49.902;8.596;2024-03-06T06:54:03;0.20;;;0.20;;
6737;SDS011;3406;49.902;8.596;2024-03-06T06:56:32;0.43;;;0.43;;
6737;SDS011;3406;49.902;8.596;2024-03-06T06:58:58;0.23;;;0.23;;
6737;SDS011;3406;49.902;8.596;2024-03-06T07:01:24;0.20;;;0.20;;
6737;SDS011;3406;49.902;8.596;2024-03-06T07:03:52;0.30;;;0.30;;
6737;SDS011;3406;49.902;8.596;2024-03-06T07:06:19;0.20;;;0.20;;
6737;SDS011;3406;49.902;8.596;2024-03-06T07:08:45;0.27;;;0.27;;
6737;SDS011;3406;49.902;8.596;2024-03-06T07:11:12;0.30;;;0.30;;
6737;SDS011;3406;49.902;8.596;2024-03-06T07:13:40;0.30;;;0.30;;
6737;SDS011;3406;49.902;8.596;2024-03-06T07:16:08;0.20;;;0.20;;
6737;SDS011;3406;49.902;8.596;2024-03-06T07:18:35;0.63;;;0.63;;
6737;SDS011;3406;49.902;8.596;2024-03-06T07:21:01;0.20;;;0.20;;
6737;SDS011;3406;49.902;8.596;2024-03-06T07:23:28;0.20;;;0.20;;
6737;SDS011;3406;49.902;8.596;2024-03-06T07:25:55;2.20;;;0.53;;
6737;SDS011;3406;49.902;8.596;2024-03-06T07:28:22;0.30;;;0.30;;
6737;SDS011;3406;49.902;8.596;2024-03-06T07:30:51;0.30;;;0.30;;
6737;SDS011;3406;49.902;8.596;2024-03-06T07:33:18;0.27;;;0.27;;
6737;SDS011;3406;49.902;8.596;2024-03-06T07:35:45;0.20;;;0.20;;
6737;SDS011;3406;49.902;8.596;2024-03-06T07:38:11;0.20;;;0.20;;
6737;SDS011;3406;49.902;8.596;2024-03-06T07:44:01;0.20;;;0.20;;
6737;SDS011;3406;49.902;8.596;2024-03-06T07:46:29;0.33;;;0.33;;
6737;SDS011;3406;49.902;8.596;2024-03-06T07:48:56;0.30;;;0.30;;
6737;SDS011;3406;49.902;8.596;2024-03-06T07:51:22;0.73;;;0.73;;
6737;SDS011;3406;49.902;8.596;2024-03-06T07:53:49;0.20;;;0.20;;
6737;SDS011;3406;49.902;8.596;2024-03-06T07:56:16;0.20;;;0.20;;
6737;SDS011;3406;49.902;8.596;2024-03-06T07:58:42;0.20;;;0.20;;
6737;SDS011;3406;49.902;8.596;2024-03-06T08:01:09;0.40;;;0.40;;
6737;SDS011;3406;49.902;8.596;2024-03-06T08:03:39;0.30;;;0.30;;
6737;SDS011;3406;49.902;8.596;2024-03-06T08:06:08;0.20;;;0.20;;
6737;SDS011;3406;49.902;8.596;2024-03-06T08:08:35;0.50;;;0.50;;
6737;SDS011;3406;49.902;8.596;2024-03-06T08:11:02;0.47;;;0.47;;
6737;SDS011;3406;49.902;8.596;2024-03-06T08:13:29;0.30;;;0.30;;
6737;SDS011;3406;49.902;8.596;2024-03-06T08:15:55;0.40;;;0.40;;
6737;SDS011;3406;49.902;8.596;2024-03-06T08:18:22;0.50;;;0.50;;
6737;SDS011;3406;49.902;8.596;2024-03-06T08:20:50;0.60;;;0.60;;
6737;SDS011;3406;49.902;8.596;2024-03-06T08:23:18;0.40;;;0.40;;
6737;SDS011;3406;49.902;8.596;2024-03-06T08:25:44;0.20;;;0.20;;
6737;SDS011;3406;49.902;8.596;2024-03-06T08:28:11;0.33;;;0.33;;
6737;SDS011;3406;49.902;8.596;2024-03-06T08:30:38;0.40;;;0.40;;
6737;SDS011;3406;49.902;8.596;2024-03-06T08:33:05;0.30;;;0.30;;
6737;SDS011;3406;49.902;8.596;2024-03-06T08:35:31;0.20;;;0.20;;
6737;SDS011;3406;49.902;8.596;2024-03-06T08:38:00;0.43;;;0.43;;
6737;SDS011;3406;49.902;8.596;2024-03-06T08:40:26;0.30;;;0.30;;
6737;SDS011;3406;49.902;8.596;2024-03-06T08:42:53;0.20;;;0.20;;
6737;SDS011;3406;49.902;8.596;2024-03-06T08:45:20;0.30;;;0.30;;
6737;SDS011;3406;49.902;8.596;2024-03-06T08:47:48;0.30;;;0.30;;
6737;SDS011;3406;49.902;8.596;2024-03-06T08:50:15;0.50;;;0.50;;
6737;SDS011;3406;49.902;8.596;2024-03-06T08:52:42;0.60;;;0.60;;
6737;SDS011;3406;49.902;8.596;2024-03-06T08:55:10;0.27;;;0.27;;
6737;SDS011;3406;49.902;8.596;2024-03-06T08:57:37;0.40;;;0.40;;
6737;SDS011;3406;49.902;8.596;2024-03-06T09:00:05;0.30;;;0.30;;
6737;SDS011;3406;49.902;8.596;2024-03-06T09:02:35;0.33;;;0.33;;
6737;SDS011;3406;49.902;8.596;2024-03-06T09:05:03;0.40;;;0.40;;
6737;SDS011;3406;49.902;8.596;2024-03-06T09:07:30;0.57;;;0.57;;
6737;SDS011;3406;49.902;8.596;2024-03-06T09:10:02;0.30;;;0.30;;
6737;SDS011;3406;49.902;8.596;2024-03-06T09:12:31;0.20;;;0.20;;
6737;SDS011;3406;49.902;8.596;2024-03-06T09:14:58;0.30;;;0.30;;
6737;SDS011;3406;49.902;8.596;2024-03-06T09:17:26;0.33;;;0.33;;
6737;SDS011;3406;49.902;8.596;2024-03-06T09:19:53;0.20;;;0.20;;
6737;SDS011;3406;49.902;8.596;2024-03-06T09:22:20;0.30;;;0.30;;
6737;SDS011;3406;49.902;8.596;2024-03-06T09:24:47;0.50;;;0.50;;
6737;SDS011;3406;49.902;8.596;2024-03-06T09:27:14;0.47;;;0.47;;
6737;SDS011;3406;49.902;8.596;2024-03-06T09:29:42;0.77;;;0.40;;
6737;SDS011;3406;49.902;8.596;2024-03-06T09:32:09;0.60;;;0.60;;
6737;SDS011;3406;49.902;8.596;2024-03-06T09:34:38;0.90;;;0.90;;
6737;SDS011;3406;49.902;8.596;2024-03-06T09:37:04;1.10;;;1.00;;
6737;SDS011;3406;49.902;8.596;2024-03-06T09:39:31;0.40;;;0.40;;
6737;SDS011;3406;49.902;8.596;2024-03-06T09:41:59;0.60;;;0.60;;
6737;SDS011;3406;49.902;8.596;2024-03-06T09:44:27;1.07;;;1.07;;
6737;SDS011;3406;49.902;8.596;2024-03-06T09:46:55;0.43;;;0.43;;
6737;SDS011;3406;49.902;8.596;2024-03-06T09:49:28;0.80;;;0.80;;
6737;SDS011;3406;49.902;8.596;2024-03-06T09:51:55;0.37;;;0.37;;
6737;SDS011;3406;49.902;8.596;2024-03-06T09:54:24;0.67;;;0.67;;
6737;SDS011;3406;49.902;8.596;2024-03-06T09:56:52;0.80;;;0.80;;
6737;SDS011;3406;49.902;8.596;2024-03-06T09:59:20;1.07;;;1.07;;
6737;SDS011;3406;49.902;8.596;2024-03-06T10:01:49;0.87;;;0.87;;
6737;SDS011;3406;49.902;8.596;2024-03-06T10:04:22;0.93;;;0.93;;
6737;SDS011;3406;49.902;8.596;2024-03-06T10:06:50;0.60;;;0.60;;
6737;SDS011;3406;49.902;8.596;2024-03-06T10:09:20;0.60;;;0.60;;
6737;SDS011;3406;49.902;8.596;2024-03-06T10:11:47;0.73;;;0.73;;
6737;SDS011;3406;49.902;8.596;2024-03-06T10:14:15;1.20;;;1.20;;
6737;SDS011;3406;49.902;8.596;2024-03-06T10:16:54;0.93;;;0.93;;
6737;SDS011;3406;49.902;8.596;2024-03-06T10:19:24;1.57;;;1.47;;
6737;SDS011;3406;49.902;8.596;2024-03-06T10:21:52;1.23;;;0.67;;
6737;SDS011;3406;49.902;8.596;2024-03-06T10:24:19;0.77;;;0.77;;
6737;SDS011;3406;49.902;8.596;2024-03-06T10:26:48;1.17;;;0.83;;
6737;SDS011;3406;49.902;8.596;2024-03-06T10:29:15;0.90;;;0.90;;
6737;SDS011;3406;49.902;8.596;2024-03-06T10:31:46;0.80;;;0.80;;
6737;SDS011;3406;49.902;8.596;2024-03-06T10:34:14;1.13;;;1.13;;
6737;SDS011;3406;49.902;8.596;2024-03-06T10:36:43;2.93;;;1.47;;
6737;SDS011;3406;49.902;8.596;2024-03-06T10:39:10;1.30;;;1.20;;
6737;SDS011;3406;49.902;8.596;2024-03-06T10:41:39;1.20;;;1.20;;
6737;SDS011;3406;49.902;8.596;2024-03-06T10:44:07;1.13;;;1.13;;
6737;SDS011;3406;49.902;8.596;2024-03-06T10:46:38;1.03;;;1.03;;
6737;SDS011;3406;49.902;8.596;2024-03-06T10:52:32;0.83;;;0.83;;
6737;SDS011;3406;49.902;8.596;2024-03-06T10:55:00;2.63;;;1.70;;
6737;SDS011;3406;49.902;8.596;2024-03-06T11:04:00;1.57;;;1.13;;
6737;SDS011;3406;49.902;8.596;2024-03-06T11:06:28;0.77;;;0.77;;
6737;SDS011;3406;49.902;8.596;2024-03-06T11:08:56;1.40;;;1.37;;
6737;SDS011;3406;49.902;8.596;2024-03-06T11:11:23;1.37;;;1.37;;
6737;SDS011;3406;49.902;8.596;2024-03-06T11:13:50;1.37;;;1.27;;
6737;SDS011;3406;49.902;8.596;2024-03-06T11:16:26;1.97;;;1.80;;
6737;SDS011;3406;49.902;8.596;2024-03-06T11:19:04;3.60;;;1.43;;
6737;SDS011;3406;49.902;8.596;2024-03-06T11:21:31;1.80;;;1.43;;
6737;SDS011;3406;49.902;8.596;2024-03-06T11:24:19;1.57;;;1.00;;
6737;SDS011;3406;49.902;8.596;2024-03-06T11:26:47;1.10;;;1.10;;
6737;SDS011;3406;49.902;8.596;2024-03-06T11:29:18;3.00;;;1.27;;
6737;SDS011;3406;49.902;8.596;2024-03-06T11:34:28;1.73;;;1.63;;
6737;SDS011;3406;49.902;8.596;2024-03-06T11:36:56;0.47;;;0.47;;
6737;SDS011;3406;49.902;8.596;2024-03-06T11:39:27;1.43;;;1.43;;
6737;SDS011;3406;49.902;8.596;2024-03-06T11:41:55;1.70;;;1.70;;
6737;SDS011;3406;49.902;8.596;2024-03-06T11:44:22;0.90;;;0.90;;
6737;SDS011;3406;49.902;8.596;2024-03-06T11:46:50;1.53;;;0.60;;
6737;SDS011;3406;49.902;8.596;2024-03-06T11:49:23;1.00;;;1.00;;
6737;SDS011;3406;49.902;8.596;2024-03-06T11:51:51;1.30;;;1.20;;
6737;SDS011;3406;49.902;8.596;2024-03-06T11:54:19;1.00;;;1.00;;
6737;SDS011;3406;49.902;8.596;2024-03-06T11:56:50;0.93;;;0.93;;
6737;SDS011;3406;49.902;8.596;2024-03-06T11:59:20;1.07;;;1.07;;
6737;SDS011;3406;49.902;8.596;2024-03-06T12:01:47;1.50;;;1.50;;
6737;SDS011;3406;49.902;8.596;2024-03-06T12:07:44;1.50;;;1.00;;
6737;SDS011;3406;49.902;8.596;2024-03-06T12:10:11;1.03;;;1.03;;
6737;SDS011;3406;49.902;8.596;2024-03-06T12:12:40;1.47;;;1.47;;
6737;SDS011;3406;49.902;8.596;2024-03-06T12:15:07;1.20;;;1.20;;
6737;SDS011;3406;49.902;8.596;2024-03-06T12:17:41;1.33;;;0.93;;
6737;SDS011;3406;49.902;8.596;2024-03-06T12:20:11;1.07;;;1.03;;
6737;SDS011;3406;49.902;8.596;2024-03-06T12:22:43;2.83;;;2.73;;
6737;SDS011;3406;49.902;8.596;2024-03-06T12:25:10;1.40;;;1.33;;
6737;SDS011;3406;49.902;8.596;2024-03-06T12:27:44;1.63;;;1.57;;
6737;SDS011;3406;49.902;8.596;2024-03-06T12:30:11;0.93;;;0.90;;
6737;SDS011;3406;49.902;8.596;2024-03-06T12:32:38;2.43;;;2.33;;
6737;SDS011;3406;49.902;8.596;2024-03-06T12:35:05;0.90;;;0.90;;
6737;SDS011;3406;49.902;8.596;2024-03-06T12:37:32;1.87;;;0.87;;
6737;SDS011;3406;49.902;8.596;2024-03-06T12:39:59;1.73;;;1.63;;
6737;SDS011;3406;49.902;8.596;2024-03-06T12:42:26;1.10;;;1.10;;
6737;SDS011;3406;49.902;8.596;2024-03-06T12:44:55;2.07;;;1.47;;
6737;SDS011;3406;49.902;8.596;2024-03-06T12:47:22;1.03;;;1.03;;
6737;SDS011;3406;49.902;8.596;2024-03-06T12:49:48;1.30;;;1.30;;
6737;SDS011;3406;49.902;8.596;2024-03-06T12:52:16;1.10;;;1.10;;
6737;SDS011;3406;49.902;8.596;2024-03-06T12:54:43;7.20;;;1.50;;
6737;SDS011;3406;49.902;8.596;2024-03-06T12:57:09;1.47;;;1.43;;
6737;SDS011;3406;49.902;8.596;2024-03-06T12:59:36;1.60;;;1.60;;
6737;SDS011;3406;49.902;8.596;2024-03-06T13:02:04;1.37;;;1.37;;
6737;SDS011;3406;49.902;8.596;2024-03-06T13:04:32;3.97;;;1.20;;
6737;SDS011;3406;49.902;8.596;2024-03-06T13:06:58;1.20;;;1.10;;
6737;SDS011;3406;49.902;8.596;2024-03-06T13:09:25;0.53;;;0.53;;
6737;SDS011;3406;49.902;8.596;2024-03-06T13:11:52;1.00;;;1.00;;
6737;SDS011;3406;49.902;8.596;2024-03-06T13:14:19;2.73;;;1.53;;
6737;SDS011;3406;49.902;8.596;2024-03-06T13:16:46;2.27;;;1.20;;
6737;SDS011;3406;49.902;8.596;2024-03-06T13:19:13;1.40;;;1.40;;
6737;SDS011;3406;49.902;8.596;2024-03-06T13:21:40;2.37;;;2.27;;
6737;SDS011;3406;49.902;8.596;2024-03-06T13:24:07;1.87;;;1.87;;
6737;SDS011;3406;49.902;8.596;2024-03-06T13:26:33;1.40;;;1.40;;
6737;SDS011;3406;49.902;8.596;2024-03-06T13:29:02;1.60;;;1.50;;
6737;SDS011;3406;49.902;8.596;2024-03-06T13:31:29;1.00;;;1.00;;
6737;SDS011;3406;49.902;8.596;2024-03-06T13:33:58;2.10;;;2.00;;
6737;SDS011;3406;49.902;8.596;2024-03-06T13:36:27;1.13;;;1.13;;
6737;SDS011;3406;49.902;8.596;2024-03-06T13:38:53;1.40;;;1.40;;
6737;SDS011;3406;49.902;8.596;2024-03-06T13:41:20;1.73;;;1.20;;
6737;SDS011;3406;49.902;8.596;2024-03-06T13:43:47;1.60;;;1.53;;
6737;SDS011;3406;49.902;8.596;2024-03-06T13:46:14;1.50;;;1.50;;
6737;SDS011;3406;49.902;8.596;2024-03-06T13:48:41;1.57;;;1.57;;
6737;SDS011;3406;49.902;8.596;2024-03-06T13:51:07;1.97;;;1.87;;
6737;SDS011;3406;49.902;8.596;2024-03-06T13:53:35;2.23;;;2.13;;
6737;SDS011;3406;49.902;8.596;2024-03-06T13:56:02;1.90;;;1.90;;
6737;SDS011;3406;49.902;8.596;2024-03-06T13:58:29;1.87;;;1.43;;
6737;SDS011;3406;49.902;8.596;2024-03-06T14:00:56;0.83;;;0.83;;
6737;SDS011;3406;49.902;8.596;2024-03-06T14:03:22;6.37;;;0.97;;
6737;SDS011;3406;49.902;8.596;2024-03-06T14:05:49;2.40;;;2.40;;
6737;SDS011;3406;49.902;8.596;2024-03-06T14:08:16;5.57;;;1.40;;
6737;SDS011;3406;49.902;8.596;2024-03-06T14:10:44;1.83;;;1.03;;
6737;SDS011;3406;49.902;8.596;2024-03-06T14:13:10;0.87;;;0.87;;
6737;SDS011;3406;49.902;8.596;2024-03-06T14:15:37;0.73;;;0.73;;
6737;SDS011;3406;49.902;8.596;2024-03-06T14:18:04;1.03;;;1.03;;
6737;SDS011;3406;49.902;8.596;2024-03-06T14:20:31;1.03;;;1.03;;
6737;SDS011;3406;49.902;8.596;2024-03-06T14:22:58;2.23;;;1.43;;
6737;SDS011;3406;49.902;8.596;2024-03-06T14:25:24;1.50;;;1.50;;
6737;SDS011;3406;49.902;8.596;2024-03-06T14:27:52;2.17;;;2.10;;
6737;SDS011;3406;49.902;8.596;2024-03-06T14:30:19;2.30;;;2.20;;
6737;SDS011;3406;49.902;8.596;2024-03-06T14:32:46;2.20;;;1.53;;
6737;SDS011;3406;49.902;8.596;2024-03-06T14:35:13;1.37;;;1.37;;
6737;SDS011;3406;49.902;8.596;2024-03-06T14:37:39;2.30;;;1.40;;
6737;SDS011;3406;49.902;8.596;2024-03-06T14:40:07;2.20;;;1.27;;
6737;SDS011;3406;49.902;8.596;2024-03-06T14:42:35;1.07;;;1.07;;
6737;SDS011;3406;49.902;8.596;2024-03-06T14:45:03;6.30;;;2.30;;
6737;SDS011;3406;49.902;8.596;2024-03-06T14:47:30;0.47;;;0.47;;
6737;SDS011;3406;49.902;8.596;2024-03-06T14:49:57;3.17;;;1.17;;
6737;SDS011;3406;49.902;8.596;2024-03-06T14:52:24;1.40;;;1.40;;
6737;SDS011;3406;49.902;8.596;2024-03-06T14:54:51;3.67;;;1.70;;
6737;SDS011;3406;49.902;8.596;2024-03-06T14:57:18;2.80;;;1.20;;
6737;SDS011;3406;49.902;8.596;2024-03-06T14:59:46;1.13;;;1.13;;
6737;SDS011;3406;49.902;8.596;2024-03-06T15:02:14;1.33;;;1.23;;
6737;SDS011;3406;49.902;8.596;2024-03-06T15:04:41;1.70;;;1.63;;
6737;SDS011;3406;49.902;8.596;2024-03-06T15:07:08;1.27;;;1.17;;
6737;SDS011;3406;49.902;8.596;2024-03-06T15:09:35;1.17;;;1.17;;
6737;SDS011;3406;49.902;8.596;2024-03-06T15:12:01;0.93;;;0.93;;
6737;SDS011;3406;49.902;8.596;2024-03-06T15:14:29;1.23;;;1.13;;
6737;SDS011;3406;49.902;8.596;2024-03-06T15:16:56;0.40;;;0.40;;
6737;SDS011;3406;49.902;8.596;2024-03-06T15:19:24;1.40;;;1.40;;
6737;SDS011;3406;49.902;8.596;2024-03-06T15:21:51;1.67;;;1.40;;
6737;SDS011;3406;49.902;8.596;2024-03-06T15:24:17;1.00;;;1.00;;
6737;SDS011;3406;49.902;8.596;2024-03-06T15:26:44;0.70;;;0.70;;
6737;SDS011;3406;49.902;8.596;2024-03-06T15:29:11;1.40;;;1.40;;
6737;SDS011;3406;49.902;8.596;2024-03-06T15:31:37;4.63;;;1.30;;
6737;SDS011;3406;49.902;8.596;2024-03-06T15:34:04;1.70;;;1.30;;
6737;SDS011;3406;49.902;8.596;2024-03-06T15:36:33;1.03;;;1.03;;
6737;SDS011;3406;49.902;8.596;2024-03-06T15:38:59;0.73;;;0.73;;
6737;SDS011;3406;49.902;8.596;2024-03-06T15:41:26;1.73;;;1.73;;
6737;SDS011;3406;49.902;8.596;2024-03-06T15:43:52;0.77;;;0.70;;